Time;durP1;ratioP1;P1;durP2;ratioP2;P2;SDS_P1;SDS_P2;PMS_P1;PMS_P2;Temp;Humidity;BMP_temperature;BMP_pressure;BME280_temperature;BME280_humidity;BME280_pressure;Samples;Min_cycle;Max_cycle;Signal;HPM_P1;HPM_P2
2022/02/12 00:00:10;;;;;;;;;;;22.60;28.70;;;;;;688669;28;1276;-89
2022/02/12 00:00:31;;;;;;;;;;;22.60;28.70;;;;;;688255;28;1106;-89
2022/02/12 00:00:52;;;;;;;;;;;22.60;28.70;;;;;;688078;28;1239;-89
2022/02/12 00:01:13;;;;;;;;;;;22.50;28.70;;;;;;689017;28;1478;-88
2022/02/12 00:01:33;;;;;;;;;;;22.50;28.70;;;;;;688187;28;1225;-88
2022/02/12 00:01:54;;;;;;;;;;;22.50;28.70;;;;;;686061;28;1218;-89
2022/02/12 00:02:14;;;;;;;;;;;22.50;28.70;;;;;;683240;29;1931;-89
2022/02/12 00:02:35;;;;;;;;;;;22.50;28.70;;;;;;683360;29;1212;-88
2022/02/12 00:02:55;;;;;;;;;;;22.50;28.80;;;;;;680704;29;1308;-89
2022/02/12 00:03:16;;;;;;;;;;;22.50;28.80;;;;;;678227;29;1253;-89
2022/02/12 00:03:37;;;;;;;;;;;22.50;28.80;;;;;;680793;29;1238;-89
2022/02/12 00:03:58;;;;;;;;;;;22.60;28.80;;;;;;681107;28;1457;-89
2022/02/12 00:04:19;;;;;;;;;;;22.50;28.90;;;;;;683279;28;1348;-88
2022/02/12 00:04:39;;;;;;;;;;;22.50;28.90;;;;;;681061;29;1376;-89
2022/02/12 00:05:03;;;;;;;;;;;22.50;28.90;;;;;;683062;28;1330;-89
2022/02/12 00:05:24;;;;;;;;;;;22.50;28.90;;;;;;683148;28;1373;-88
2022/02/12 00:05:45;;;;;;;;;;;22.50;28.90;;;;;;684051;28;1363;-87
2022/02/12 00:06:05;;;;;;;;;;;22.50;28.90;;;;;;686580;28;1152;-88
2022/02/12 00:06:26;;;;;;;;;;;22.50;28.90;;;;;;683988;28;1390;-88
2022/02/12 00:06:46;;;;;;;;;;;22.50;29.00;;;;;;681850;28;1237;-89
2022/02/12 00:07:08;;;;;;;;;;;22.50;29.00;;;;;;681511;28;1251;-88
2022/02/12 00:07:28;;;;;;;;;;;22.50;29.00;;;;;;679044;29;1405;-89
2022/02/12 00:07:49;;;;;;;;;;;22.50;29.00;;;;;;679106;29;1276;-89
2022/02/12 00:08:10;;;;;;;;;;;22.50;29.10;;;;;;679239;29;1343;-89
2022/02/12 00:08:31;;;;;;;;;;;22.50;29.10;;;;;;679432;29;1327;-89
2022/02/12 00:08:51;;;;;;;;;;;22.50;29.10;;;;;;681808;29;1291;-89
2022/02/12 00:09:12;;;;;;;;;;;22.50;29.00;;;;;;678911;29;1271;-89
2022/02/12 00:09:32;;;;;;;;;;;22.50;28.90;;;;;;684291;29;1229;-89
2022/02/12 00:09:53;;;;;;;;;;;22.50;29.00;;;;;;684796;28;1245;-89
2022/02/12 00:10:14;;;;;;;;;;;22.50;29.00;;;;;;687191;28;1256;-88
2022/02/12 00:10:35;;;;;;;;;;;22.50;29.00;;;;;;687301;28;1281;-88
2022/02/12 00:10:55;;;;;;;;;;;22.50;29.10;;;;;;686935;28;1369;-89
2022/02/12 00:11:17;;;;;;;;;;;22.50;29.10;;;;;;687605;28;1345;-89
2022/02/12 00:11:37;;;;;;;;;;;22.50;29.10;;;;;;686996;28;1213;-90
2022/02/12 00:11:58;;;;;;;;;;;22.50;29.10;;;;;;684240;28;1317;-90
2022/02/12 00:12:19;;;;;;;;;;;22.50;29.10;;;;;;681954;28;1588;-89
2022/02/12 00:12:40;;;;;;;;;;;22.50;29.10;;;;;;683536;28;1104;-88
2022/02/12 00:13:00;;;;;;;;;;;22.50;29.20;;;;;;683493;28;1337;-89
2022/02/12 00:13:21;;;;;;;;;;;22.50;29.10;;;;;;683871;28;1414;-88
2022/02/12 00:13:41;;;;;;;;;;;22.50;29.20;;;;;;681918;28;1221;-89
2022/02/12 00:14:02;;;;;;;;;;;22.50;29.20;;;;;;681538;29;1130;-87
2022/02/12 00:14:23;;;;;;;;;;;22.50;29.20;;;;;;681127;29;1298;-88
2022/02/12 00:14:43;;;;;;;;;;;22.40;29.20;;;;;;681605;29;1304;-89
2022/02/12 00:15:04;;;;;;;;;;;22.50;29.20;;;;;;684296;28;1467;-88
2022/02/12 00:15:25;;;;;;;;;;;22.50;29.20;;;;;;684142;28;1370;-90
2022/02/12 00:15:45;;;;;;;;;;;22.50;29.20;;;;;;684281;29;1203;-89
2022/02/12 00:16:06;;;;;;;;;;;22.50;29.20;;;;;;681543;29;1206;-89
2022/02/12 00:16:27;;;;;;;;;;;22.50;29.20;;;;;;686836;28;1139;-89
2022/02/12 00:16:47;;;;;;;;;;;22.50;29.20;;;;;;686554;28;1164;-88
2022/02/12 00:17:08;;;;;;;;;;;22.40;29.20;;;;;;686149;28;1209;-90
2022/02/12 00:17:29;;;;;;;;;;;22.50;29.20;;;;;;683336;29;1221;-89
2022/02/12 00:17:49;;;;;;;;;;;22.40;29.20;;;;;;678675;29;1297;-88
2022/02/12 00:18:10;;;;;;;;;;;22.50;29.20;;;;;;678601;29;1221;-89
2022/02/12 00:18:31;;;;;;;;;;;22.50;29.20;;;;;;678435;29;1108;-89
2022/02/12 00:18:51;;;;;;;;;;;22.50;29.30;;;;;;678438;29;1298;-89
2022/02/12 00:19:12;;;;;;;;;;;22.40;29.30;;;;;;675967;29;1246;-89
2022/02/12 00:19:32;;;;;;;;;;;22.50;29.30;;;;;;678703;29;1139;-89
2022/02/12 00:19:53;;;;;;;;;;;22.50;29.30;;;;;;681203;29;1222;-89
2022/02/12 00:20:14;;;;;;;;;;;22.50;29.30;;;;;;683664;29;1219;-89
2022/02/12 00:20:35;;;;;;;;;;;22.40;29.30;;;;;;681596;29;1066;-89
2022/02/12 00:20:56;;;;;;;;;;;22.40;29.30;;;;;;683798;29;1345;-88
2022/02/12 00:21:16;;;;;;;;;;;22.40;29.40;;;;;;683753;29;1183;-89
2022/02/12 00:21:37;;;;;;;;;;;22.40;29.40;;;;;;681037;29;1343;-90
2022/02/12 00:21:57;;;;;;;;;;;22.40;29.30;;;;;;683237;29;1302;-88
2022/02/12 00:22:18;;;;;;;;;;;22.40;29.30;;;;;;681216;29;2042;-90
2022/02/12 00:22:39;;;;;;;;;;;22.50;29.40;;;;;;686057;28;1193;-89
2022/02/12 00:23:00;;;;;;;;;;;22.40;29.40;;;;;;683329;29;1270;-89
2022/02/12 00:23:21;;;;;;;;;;;22.50;29.30;;;;;;680622;29;1241;-88
2022/02/12 00:23:41;;;;;;;;;;;22.50;29.40;;;;;;681180;29;1198;-88
2022/02/12 00:24:02;;;;;;;;;;;22.40;29.40;;;;;;681117;29;1261;-89
2022/02/12 00:24:22;;;;;;;;;;;22.40;29.40;;;;;;682906;29;1230;-88
2022/02/12 00:24:43;;;;;;;;;;;22.50;29.40;;;;;;685623;28;1397;-89
2022/02/12 00:25:04;;;;;;;;;;;22.40;29.40;;;;;;683100;28;1115;-89
2022/02/12 00:25:25;;;;;;;;;;;22.40;29.50;;;;;;683602;28;867;-88
2022/02/12 00:25:45;;;;;;;;;;;22.40;29.40;;;;;;683590;28;1182;-88
2022/02/12 00:26:06;;;;;;;;;;;22.40;29.50;;;;;;683233;29;1206;-88
2022/02/12 00:26:27;;;;;;;;;;;22.40;29.40;;;;;;682863;29;1220;-88
2022/02/12 00:26:48;;;;;;;;;;;22.40;29.50;;;;;;681059;29;1195;-88
2022/02/12 00:27:08;;;;;;;;;;;22.50;29.60;;;;;;680332;29;1390;-89
2022/02/12 00:27:29;;;;;;;;;;;22.40;29.50;;;;;;680502;29;1387;-89
2022/02/12 00:27:50;;;;;;;;;;;22.40;29.60;;;;;;683426;28;1381;-88
2022/02/12 00:28:10;;;;;;;;;;;22.40;29.50;;;;;;683190;29;1340;-89
2022/02/12 00:28:31;;;;;;;;;;;22.40;29.50;;;;;;685455;28;1450;-88
2022/02/12 00:28:51;;;;;;;;;;;22.40;29.50;;;;;;685866;28;1354;-88
2022/02/12 00:29:12;;;;;;;;;;;22.40;29.60;;;;;;686124;28;1221;-87
2022/02/12 00:29:32;;;;;;;;;;;22.40;29.60;;;;;;688289;28;1269;-89
2022/02/12 00:29:53;;;;;;;;;;;22.40;29.60;;;;;;688604;28;1388;-88
2022/02/12 00:30:13;;;;;;;;;;;22.40;29.60;;;;;;688513;28;1185;-88
2022/02/12 00:30:34;;;;;;;;;;;22.40;29.60;;;;;;688425;28;1300;-88
2022/02/12 00:30:55;;;;;;;;;;;22.40;29.60;;;;;;688207;28;1320;-88
2022/02/12 00:31:15;;;;;;;;;;;22.40;29.60;;;;;;683484;28;1215;-88
2022/02/12 00:31:36;;;;;;;;;;;22.40;29.60;;;;;;683209;29;1113;-88
2022/02/12 00:31:58;;;;;;;;;;;22.40;29.70;;;;;;680503;29;1327;-88
2022/02/12 00:32:18;;;;;;;;;;;22.40;30.50;;;;;;677731;29;1487;-89
2022/02/12 00:32:39;;;;;;;;;;;22.40;29.60;;;;;;678427;29;1189;-89
2022/02/12 00:32:59;;;;;;;;;;;22.40;29.60;;;;;;680956;28;1471;-88
2022/02/12 00:33:20;;;;;;;;;;;22.40;29.60;;;;;;683574;28;1369;-88
2022/02/12 00:33:40;;;;;;;;;;;22.40;29.60;;;;;;683522;28;1447;-88
2022/02/12 00:34:01;;;;;;;;;;;22.40;29.70;;;;;;683102;28;1216;-88
2022/02/12 00:34:21;;;;;;;;;;;22.40;29.70;;;;;;683078;28;1393;-88
2022/02/12 00:34:42;;;;;;;;;;;22.40;29.70;;;;;;680657;28;1324;-88
2022/02/12 00:35:03;;;;;;;;;;;22.40;29.70;;;;;;678116;29;1290;-89
2022/02/12 00:35:24;;;;;;;;;;;22.40;29.70;;;;;;680612;28;1202;-88
2022/02/12 00:35:45;;;;;;;;;;;22.40;29.70;;;;;;680830;28;1155;-89
2022/02/12 00:36:05;;;;;;;;;;;22.40;29.80;;;;;;683160;29;1369;-88
2022/02/12 00:36:26;;;;;;;;;;;22.40;29.80;;;;;;680785;29;1151;-88
2022/02/12 00:36:46;;;;;;;;;;;22.40;29.80;;;;;;680614;29;1092;-88
2022/02/12 00:37:07;;;;;;;;;;;22.40;29.80;;;;;;678132;29;1127;-88
2022/02/12 00:37:29;;;;;;;;;;;22.40;29.80;;;;;;678226;29;1319;-88
2022/02/12 00:37:49;;;;;;;;;;;22.40;29.70;;;;;;679968;29;1345;-89
2022/02/12 00:38:10;;;;;;;;;;;22.40;29.80;;;;;;681108;29;1098;-89
2022/02/12 00:38:30;;;;;;;;;;;22.40;29.80;;;;;;683448;28;1338;-89
2022/02/12 00:38:51;;;;;;;;;;;22.40;29.80;;;;;;685469;28;1327;-89
2022/02/12 00:39:13;;;;;;;;;;;22.40;29.80;;;;;;683643;28;1476;-89
2022/02/12 00:39:33;;;;;;;;;;;22.40;29.90;;;;;;683182;29;1234;-88
2022/02/12 00:39:55;;;;;;;;;;;22.40;29.80;;;;;;682977;29;1123;-89
2022/02/12 00:40:15;;;;;;;;;;;22.40;29.80;;;;;;680583;29;1289;-89
2022/02/12 00:40:36;;;;;;;;;;;22.40;29.90;;;;;;680074;29;1382;-89
2022/02/12 00:40:56;;;;;;;;;;;22.40;29.90;;;;;;680905;28;1376;-89
2022/02/12 00:41:17;;;;;;;;;;;22.40;29.90;;;;;;683170;28;1214;-89
2022/02/12 00:41:38;;;;;;;;;;;22.40;29.90;;;;;;680524;28;1242;-90
2022/02/12 00:41:59;;;;;;;;;;;22.40;29.90;;;;;;680855;28;1249;-90
2022/02/12 00:42:19;;;;;;;;;;;22.40;29.90;;;;;;683397;28;1269;-89
2022/02/12 00:42:40;;;;;;;;;;;22.40;29.90;;;;;;686207;28;1288;-89
2022/02/12 00:43:01;;;;;;;;;;;22.40;29.90;;;;;;685694;28;1308;-88
2022/02/12 00:43:22;;;;;;;;;;;22.40;30.00;;;;;;686244;28;1134;-89
2022/02/12 00:43:42;;;;;;;;;;;22.40;29.90;;;;;;689020;28;1211;-89
2022/02/12 00:44:03;;;;;;;;;;;22.40;29.90;;;;;;690792;28;1353;-89
2022/02/12 00:44:24;;;;;;;;;;;22.40;29.90;;;;;;688615;28;1293;-88
2022/02/12 00:44:47;;;;;;;;;;;22.40;29.90;;;;;;688228;28;1113;-89
2022/02/12 00:45:08;;;;;;;;;;;22.40;29.90;;;;;;688442;28;1409;-88
2022/02/12 00:45:29;;;;;;;;;;;22.40;29.90;;;;;;686462;28;1250;-90
2022/02/12 00:45:49;;;;;;;;;;;22.40;29.90;;;;;;685214;28;1111;-89
2022/02/12 00:46:10;;;;;;;;;;;22.40;29.90;;;;;;686637;28;1291;-89
2022/02/12 00:46:31;;;;;;;;;;;22.40;29.90;;;;;;688469;28;1677;-89
2022/02/12 00:46:52;;;;;;;;;;;22.40;29.90;;;;;;688520;28;1138;-89
2022/02/12 00:47:13;;;;;;;;;;;22.40;29.90;;;;;;688330;28;1168;-89
2022/02/12 00:47:34;;;;;;;;;;;22.40;30.00;;;;;;688466;28;1419;-88
2022/02/12 00:47:55;;;;;;;;;;;22.40;30.00;;;;;;688538;28;1118;-89
2022/02/12 00:48:15;;;;;;;;;;;22.40;30.00;;;;;;686378;28;1162;-88
2022/02/12 00:48:36;;;;;;;;;;;22.40;30.00;;;;;;685807;28;1402;-88
2022/02/12 00:48:56;;;;;;;;;;;22.40;30.00;;;;;;685646;28;1465;-88
2022/02/12 00:49:17;;;;;;;;;;;22.40;30.00;;;;;;685888;28;1097;-88
2022/02/12 00:49:38;;;;;;;;;;;22.40;29.90;;;;;;683042;28;1217;-88
2022/02/12 00:49:58;;;;;;;;;;;22.40;30.00;;;;;;685449;28;1245;-88
2022/02/12 00:50:19;;;;;;;;;;;22.40;30.00;;;;;;683279;28;1198;-88
2022/02/12 00:50:39;;;;;;;;;;;22.40;30.00;;;;;;683200;28;1130;-89
2022/02/12 00:51:00;;;;;;;;;;;22.40;30.00;;;;;;683300;28;1263;-88
2022/02/12 00:51:21;;;;;;;;;;;22.40;30.00;;;;;;686035;28;1260;-88
2022/02/12 00:51:41;;;;;;;;;;;22.40;30.00;;;;;;688121;28;1190;-88
2022/02/12 00:52:02;;;;;;;;;;;22.40;30.00;;;;;;685776;28;1119;-88
2022/02/12 00:52:22;;;;;;;;;;;22.40;30.00;;;;;;685923;28;1346;-88
2022/02/12 00:52:43;;;;;;;;;;;22.40;30.00;;;;;;688469;28;1161;-88
2022/02/12 00:53:04;;;;;;;;;;;22.40;30.00;;;;;;688116;28;1138;-88
2022/02/12 00:53:24;;;;;;;;;;;22.40;30.00;;;;;;685495;28;1309;-88
2022/02/12 00:53:45;;;;;;;;;;;22.40;30.00;;;;;;682841;28;1242;-87
2022/02/12 00:54:05;;;;;;;;;;;22.40;30.00;;;;;;680681;28;1198;-88
2022/02/12 00:54:26;;;;;;;;;;;22.40;30.00;;;;;;683032;28;1204;-88
2022/02/12 00:54:47;;;;;;;;;;;22.40;30.00;;;;;;685565;28;1177;-88
2022/02/12 00:55:07;;;;;;;;;;;22.40;30.10;;;;;;683327;28;1365;-88
2022/02/12 00:55:28;;;;;;;;;;;22.40;30.00;;;;;;683247;28;1464;-89
2022/02/12 00:55:48;;;;;;;;;;;22.40;30.00;;;;;;683384;28;1298;-89
2022/02/12 00:56:09;;;;;;;;;;;22.40;30.00;;;;;;683520;28;1121;-88
2022/02/12 00:56:30;;;;;;;;;;;22.40;30.00;;;;;;688119;28;1394;-88
2022/02/12 00:56:50;;;;;;;;;;;22.40;30.10;;;;;;682931;28;1333;-88
2022/02/12 00:57:11;;;;;;;;;;;22.40;30.10;;;;;;683148;28;1367;-88
2022/02/12 00:57:33;;;;;;;;;;;22.40;30.10;;;;;;686089;28;1364;-88
2022/02/12 00:57:53;;;;;;;;;;;22.40;30.10;;;;;;688726;28;1356;-87
2022/02/12 00:58:14;;;;;;;;;;;22.40;30.10;;;;;;687990;28;1118;-88
2022/02/12 00:58:34;;;;;;;;;;;22.40;30.10;;;;;;688449;28;1144;-87
2022/02/12 00:58:56;;;;;;;;;;;22.40;30.10;;;;;;693482;28;1177;-88
2022/02/12 00:59:17;;;;;;;;;;;22.40;30.20;;;;;;690535;28;1240;-88
2022/02/12 00:59:37;;;;;;;;;;;22.40;30.20;;;;;;687998;28;1358;-87
2022/02/12 00:59:58;;;;;;;;;;;22.40;30.20;;;;;;688451;28;1247;-89
2022/02/12 01:00:19;;;;;;;;;;;22.40;30.20;;;;;;688139;28;1294;-88
2022/02/12 01:00:39;;;;;;;;;;;22.40;30.20;;;;;;685663;28;1467;-88
2022/02/12 01:01:00;;;;;;;;;;;22.30;30.10;;;;;;686011;28;1283;-88
2022/02/12 01:01:20;;;;;;;;;;;22.40;30.20;;;;;;685443;28;1575;-88
2022/02/12 01:01:41;;;;;;;;;;;22.40;30.10;;;;;;683054;28;1182;-88
2022/02/12 01:02:02;;;;;;;;;;;22.30;30.10;;;;;;680441;29;1946;-88
2022/02/12 01:02:23;;;;;;;;;;;22.40;30.20;;;;;;683412;28;934;-87
2022/02/12 01:02:43;;;;;;;;;;;22.40;30.20;;;;;;683372;28;1393;-89
2022/02/12 01:03:04;;;;;;;;;;;22.40;30.10;;;;;;683001;28;1215;-88
2022/02/12 01:03:25;;;;;;;;;;;22.40;30.10;;;;;;683408;28;1368;-88
2022/02/12 01:03:45;;;;;;;;;;;22.40;30.20;;;;;;685745;28;1224;-87
2022/02/12 01:04:06;;;;;;;;;;;22.40;30.20;;;;;;683391;28;1368;-88
2022/02/12 01:04:26;;;;;;;;;;;22.40;30.20;;;;;;685508;28;1370;-88
2022/02/12 01:04:47;;;;;;;;;;;22.40;30.20;;;;;;683347;28;1350;-88
2022/02/12 01:05:08;;;;;;;;;;;22.40;30.20;;;;;;685634;28;1525;-89
2022/02/12 01:05:28;;;;;;;;;;;22.40;30.20;;;;;;685995;28;1466;-88
2022/02/12 01:05:49;;;;;;;;;;;22.30;30.20;;;;;;688337;28;1241;-89
2022/02/12 01:06:09;;;;;;;;;;;22.30;30.20;;;;;;686050;28;1202;-88
2022/02/12 01:06:31;;;;;;;;;;;22.30;30.20;;;;;;688616;28;1207;-89
2022/02/12 01:06:51;;;;;;;;;;;22.30;30.20;;;;;;690835;28;1247;-88
2022/02/12 01:07:12;;;;;;;;;;;22.30;30.20;;;;;;685820;28;1305;-87
2022/02/12 01:07:32;;;;;;;;;;;22.30;30.20;;;;;;686130;28;1225;-88
2022/02/12 01:07:53;;;;;;;;;;;22.40;30.20;;;;;;685539;28;1476;-88
2022/02/12 01:08:13;;;;;;;;;;;22.30;30.20;;;;;;685529;28;1206;-88
2022/02/12 01:08:34;;;;;;;;;;;22.30;30.20;;;;;;685830;28;1321;-89
2022/02/12 01:08:54;;;;;;;;;;;22.40;30.20;;;;;;686059;28;1404;-89
2022/02/12 01:09:15;;;;;;;;;;;22.30;30.30;;;;;;690975;28;1283;-89
2022/02/12 01:09:37;;;;;;;;;;;22.30;30.20;;;;;;691371;28;1340;-88
2022/02/12 01:09:58;;;;;;;;;;;22.40;30.30;;;;;;690584;28;1263;-89
2022/02/12 01:10:18;;;;;;;;;;;22.30;30.20;;;;;;688043;28;1176;-89
2022/02/12 01:10:39;;;;;;;;;;;22.40;30.30;;;;;;683253;28;1138;-89
2022/02/12 01:11:00;;;;;;;;;;;22.30;30.30;;;;;;683575;28;1233;-88
2022/02/12 01:11:20;;;;;;;;;;;22.30;30.30;;;;;;688570;28;1185;-88
2022/02/12 01:11:41;;;;;;;;;;;22.30;30.30;;;;;;685864;28;1125;-88
2022/02/12 01:12:03;;;;;;;;;;;22.30;30.30;;;;;;688797;28;1208;-88
2022/02/12 01:12:24;;;;;;;;;;;22.30;30.30;;;;;;691746;28;1269;-89
2022/02/12 01:12:45;;;;;;;;;;;22.30;30.30;;;;;;690721;28;1117;-88
2022/02/12 01:13:05;;;;;;;;;;;22.30;30.30;;;;;;688300;28;1208;-88
2022/02/12 01:13:26;;;;;;;;;;;22.30;30.30;;;;;;685735;28;1421;-88
2022/02/12 01:13:46;;;;;;;;;;;22.30;30.30;;;;;;683177;28;1311;-89
2022/02/12 01:14:07;;;;;;;;;;;22.30;30.40;;;;;;683689;28;1086;-88
2022/02/12 01:14:28;;;;;;;;;;;22.30;30.40;;;;;;683268;28;1197;-89
2022/02/12 01:14:48;;;;;;;;;;;22.30;30.40;;;;;;683480;28;1282;-89
2022/02/12 01:15:09;;;;;;;;;;;22.30;30.30;;;;;;683919;28;1108;-88
2022/02/12 01:15:32;;;;;;;;;;;22.30;30.40;;;;;;688331;28;1282;-88
2022/02/12 01:15:52;;;;;;;;;;;22.30;30.30;;;;;;686668;28;1378;-89
2022/02/12 01:16:13;;;;;;;;;;;22.30;30.40;;;;;;691264;28;1416;-89
2022/02/12 01:16:34;;;;;;;;;;;22.30;30.40;;;;;;690670;28;1125;-89
2022/02/12 01:16:54;;;;;;;;;;;22.30;30.40;;;;;;690849;28;1237;-88
2022/02/12 01:17:15;;;;;;;;;;;22.30;30.40;;;;;;691397;28;1315;-88
2022/02/12 01:17:37;;;;;;;;;;;22.30;30.40;;;;;;688716;28;1388;-89
2022/02/12 01:17:58;;;;;;;;;;;22.30;30.40;;;;;;688887;28;1490;-89
2022/02/12 01:18:18;;;;;;;;;;;22.30;30.40;;;;;;691351;28;973;-90
2022/02/12 01:18:39;;;;;;;;;;;22.40;30.50;;;;;;690532;28;1229;-90
2022/02/12 01:18:59;;;;;;;;;;;22.30;30.40;;;;;;689259;28;827;-88
2022/02/12 01:19:20;;;;;;;;;;;22.30;30.40;;;;;;688886;28;1400;-89
2022/02/12 01:19:42;;;;;;;;;;;22.30;30.40;;;;;;691151;28;826;-88
2022/02/12 01:20:03;;;;;;;;;;;22.30;30.50;;;;;;691148;28;1161;-88
2022/02/12 01:20:23;;;;;;;;;;;22.30;30.50;;;;;;691102;28;1516;-90
2022/02/12 01:20:44;;;;;;;;;;;22.30;30.60;;;;;;691263;28;1308;-88
2022/02/12 01:21:04;;;;;;;;;;;22.30;30.70;;;;;;691186;28;1250;-89
2022/02/12 01:21:25;;;;;;;;;;;22.30;30.70;;;;;;688497;28;1197;-88
2022/02/12 01:21:46;;;;;;;;;;;22.30;30.90;;;;;;688497;28;1138;-89
2022/02/12 01:22:06;;;;;;;;;;;22.40;30.90;;;;;;685779;28;1894;-89
2022/02/12 01:22:27;;;;;;;;;;;22.40;31.00;;;;;;688557;28;1114;-89
2022/02/12 01:22:48;;;;;;;;;;;22.30;30.90;;;;;;688609;28;1374;-87
2022/02/12 01:23:10;;;;;;;;;;;22.40;31.00;;;;;;688607;28;1151;-89
2022/02/12 01:23:31;;;;;;;;;;;22.40;30.90;;;;;;686367;28;1131;-89
2022/02/12 01:23:51;;;;;;;;;;;22.40;30.80;;;;;;688850;28;1082;-88
2022/02/12 01:24:12;;;;;;;;;;;22.40;30.80;;;;;;688922;28;1361;-89
2022/02/12 01:24:34;;;;;;;;;;;22.40;30.70;;;;;;691188;28;1163;-88
2022/02/12 01:24:55;;;;;;;;;;;22.40;30.70;;;;;;691830;28;1181;-88
2022/02/12 01:25:16;;;;;;;;;;;22.40;30.70;;;;;;691677;28;1249;-90
2022/02/12 01:25:37;;;;;;;;;;;22.40;30.60;;;;;;691665;28;1332;-89
2022/02/12 01:25:57;;;;;;;;;;;22.50;30.60;;;;;;691764;28;1220;-89
2022/02/12 01:26:18;;;;;;;;;;;22.40;30.50;;;;;;691559;28;1209;-89
2022/02/12 01:26:38;;;;;;;;;;;22.50;30.60;;;;;;688948;28;1268;-89
2022/02/12 01:26:59;;;;;;;;;;;22.50;30.60;;;;;;686373;28;1322;-90
2022/02/12 01:27:21;;;;;;;;;;;22.40;30.70;;;;;;686365;28;831;-89
2022/02/12 01:27:42;;;;;;;;;;;22.50;30.60;;;;;;686893;28;898;-89
2022/02/12 01:28:02;;;;;;;;;;;22.50;30.50;;;;;;688668;28;1381;-88
2022/02/12 01:28:23;;;;;;;;;;;22.50;30.40;;;;;;686648;28;1235;-89
2022/02/12 01:28:44;;;;;;;;;;;22.50;30.40;;;;;;692256;28;1370;-88
2022/02/12 01:29:05;;;;;;;;;;;22.50;30.50;;;;;;691595;28;1364;-89
2022/02/12 01:29:25;;;;;;;;;;;22.50;30.30;;;;;;691817;28;1311;-89
2022/02/12 01:29:46;;;;;;;;;;;22.50;30.40;;;;;;691732;28;1247;-88
2022/02/12 01:30:07;;;;;;;;;;;22.50;30.40;;;;;;691593;28;1394;-85
2022/02/12 01:30:28;;;;;;;;;;;22.50;30.40;;;;;;691517;28;1158;-85
2022/02/12 01:30:48;;;;;;;;;;;22.40;30.50;;;;;;688952;28;1331;-85
2022/02/12 01:31:09;;;;;;;;;;;22.50;30.40;;;;;;686268;28;1209;-84
2022/02/12 01:31:30;;;;;;;;;;;22.50;30.40;;;;;;688902;28;1236;-87
2022/02/12 01:31:50;;;;;;;;;;;22.50;30.30;;;;;;689364;28;1235;-88
2022/02/12 01:32:11;;;;;;;;;;;22.50;30.20;;;;;;689020;28;1281;-87
2022/02/12 01:32:31;;;;;;;;;;;22.50;30.40;;;;;;688874;28;1254;-85
2022/02/12 01:32:52;;;;;;;;;;;22.50;30.30;;;;;;689194;28;1308;-86
2022/02/12 01:33:13;;;;;;;;;;;22.50;30.40;;;;;;688889;28;1481;-86
2022/02/12 01:33:34;;;;;;;;;;;22.50;30.40;;;;;;691483;28;1250;-86
2022/02/12 01:33:55;;;;;;;;;;;22.50;30.20;;;;;;690155;28;1372;-83
2022/02/12 01:34:15;;;;;;;;;;;22.50;30.00;;;;;;687324;28;1581;-86
2022/02/12 01:34:36;;;;;;;;;;;22.50;30.10;;;;;;687484;28;1471;-84
2022/02/12 01:34:57;;;;;;;;;;;22.50;30.40;;;;;;686150;28;922;-85
2022/02/12 01:35:19;;;;;;;;;;;22.50;30.30;;;;;;683475;28;1274;-84
2022/02/12 01:35:40;;;;;;;;;;;22.50;30.20;;;;;;681388;29;1488;-86
2022/02/12 01:36:00;;;;;;;;;;;22.50;30.30;;;;;;683490;28;1511;-85
2022/02/12 01:36:21;;;;;;;;;;;22.50;30.20;;;;;;686047;28;1405;-84
2022/02/12 01:36:41;;;;;;;;;;;22.50;30.00;;;;;;686255;28;815;-85
2022/02/12 01:37:04;;;;;;;;;;;22.50;30.20;;;;;;683463;28;1225;-84
2022/02/12 01:37:24;;;;;;;;;;;22.50;30.00;;;;;;684110;28;729;-85
2022/02/12 01:37:45;;;;;;;;;;;22.50;30.10;;;;;;686615;28;1346;-84
2022/02/12 01:38:06;;;;;;;;;;;22.50;30.10;;;;;;689407;28;899;-86
2022/02/12 01:38:28;;;;;;;;;;;22.50;30.00;;;;;;691550;28;819;-85
2022/02/12 01:38:48;;;;;;;;;;;22.50;30.30;;;;;;689619;28;1242;-86
2022/02/12 01:39:09;;;;;;;;;;;22.50;30.20;;;;;;691623;28;1358;-86
2022/02/12 01:39:30;;;;;;;;;;;22.50;30.10;;;;;;691054;28;795;-84
2022/02/12 01:39:51;;;;;;;;;;;22.50;30.00;;;;;;689081;28;1359;-86
2022/02/12 01:40:11;;;;;;;;;;;22.50;30.00;;;;;;691654;28;1304;-86
2022/02/12 01:40:32;;;;;;;;;;;22.50;30.00;;;;;;687272;28;1183;-85
2022/02/12 01:40:52;;;;;;;;;;;22.50;30.20;;;;;;686434;28;910;-84
2022/02/12 01:41:13;;;;;;;;;;;22.50;30.10;;;;;;686226;28;1409;-85
2022/02/12 01:41:34;;;;;;;;;;;22.50;30.00;;;;;;686117;28;898;-84
2022/02/12 01:41:55;;;;;;;;;;;22.50;30.10;;;;;;686528;28;871;-85
2022/02/12 01:42:16;;;;;;;;;;;22.50;30.10;;;;;;686164;28;1910;-85
2022/02/12 01:42:37;;;;;;;;;;;22.60;30.30;;;;;;686509;28;969;-85
2022/02/12 01:43:01;;;;;;;;;;;22.50;30.00;;;;;;689148;28;947;-86
2022/02/12 01:43:21;;;;;;;;;;;22.50;30.10;;;;;;691518;28;1236;-84
2022/02/12 01:43:42;;;;;;;;;;;22.50;30.20;;;;;;688514;28;1210;-85
2022/02/12 01:44:09;;;;;;;;;;;22.60;30.30;;;;;;686988;28;1500;-84
2022/02/12 01:44:34;;;;;;;;;;;22.60;30.20;;;;;;688848;28;841;-84
2022/02/12 01:44:55;;;;;;;;;;;22.60;30.30;;;;;;686066;28;1305;-85
2022/02/12 01:45:15;;;;;;;;;;;22.50;30.20;;;;;;686236;28;1256;-85
2022/02/12 01:45:36;;;;;;;;;;;22.50;30.10;;;;;;686114;28;1562;-85
2022/02/12 01:45:57;;;;;;;;;;;22.50;30.00;;;;;;687802;28;1452;-85
2022/02/12 01:46:17;;;;;;;;;;;22.60;30.10;;;;;;688772;28;1354;-86
2022/02/12 01:46:38;;;;;;;;;;;22.50;30.00;;;;;;688711;28;1229;-84
2022/02/12 01:46:59;;;;;;;;;;;22.50;30.00;;;;;;688787;28;925;-84
2022/02/12 01:47:20;;;;;;;;;;;22.60;30.10;;;;;;688656;28;1460;-86
2022/02/12 01:47:40;;;;;;;;;;;22.60;30.20;;;;;;686193;28;1127;-84
2022/02/12 01:48:01;;;;;;;;;;;22.60;30.20;;;;;;685834;28;1307;-85
2022/02/12 01:48:21;;;;;;;;;;;22.50;30.00;;;;;;683733;28;1299;-84
2022/02/12 01:48:44;;;;;;;;;;;22.60;30.10;;;;;;683571;28;1342;-83
2022/02/12 01:49:05;;;;;;;;;;;22.60;30.10;;;;;;683959;28;859;-86
2022/02/12 01:49:26;;;;;;;;;;;22.60;30.20;;;;;;686222;28;961;-86
2022/02/12 01:49:46;;;;;;;;;;;22.60;30.20;;;;;;684099;28;1363;-86
2022/02/12 01:50:07;;;;;;;;;;;22.60;30.40;;;;;;686143;28;863;-85
2022/02/12 01:50:28;;;;;;;;;;;22.60;30.50;;;;;;686850;28;1511;-87
2022/02/12 01:50:49;;;;;;;;;;;22.60;30.40;;;;;;686509;28;1197;-87
2022/02/12 01:51:10;;;;;;;;;;;22.50;30.30;;;;;;688578;28;1420;-84
2022/02/12 01:51:31;;;;;;;;;;;22.50;30.20;;;;;;688519;28;1086;-85
2022/02/12 01:51:52;;;;;;;;;;;22.50;30.30;;;;;;685977;28;842;-84
2022/02/12 01:52:13;;;;;;;;;;;22.50;30.30;;;;;;682064;29;1506;-84
2022/02/12 01:52:36;;;;;;;;;;;22.50;30.30;;;;;;680408;29;1033;-85
2022/02/12 01:52:56;;;;;;;;;;;22.50;30.40;;;;;;680735;29;1089;-85
2022/02/12 01:53:19;;;;;;;;;;;22.50;30.20;;;;;;681568;29;925;-85
2022/02/12 01:53:40;;;;;;;;;;;22.50;30.10;;;;;;684502;28;807;-86
2022/02/12 01:54:01;;;;;;;;;;;22.50;30.30;;;;;;683489;29;1214;-85
2022/02/12 01:54:22;;;;;;;;;;;22.50;30.40;;;;;;684194;28;1274;-84
2022/02/12 01:54:43;;;;;;;;;;;22.50;30.50;;;;;;687062;28;1065;-85
2022/02/12 01:55:05;;;;;;;;;;;22.50;30.20;;;;;;688772;28;1337;-84
2022/02/12 01:55:26;;;;;;;;;;;22.50;30.20;;;;;;688673;28;1363;-85
2022/02/12 01:55:46;;;;;;;;;;;22.40;30.20;;;;;;689380;28;1378;-86
2022/02/12 01:56:07;;;;;;;;;;;22.40;30.50;;;;;;688780;28;1374;-85
2022/02/12 01:56:28;;;;;;;;;;;22.40;30.60;;;;;;688837;28;791;-86
2022/02/12 01:56:48;;;;;;;;;;;22.50;30.50;;;;;;685490;28;1299;-88
2022/02/12 01:57:09;;;;;;;;;;;22.40;30.60;;;;;;680888;29;1370;-87
2022/02/12 01:57:30;;;;;;;;;;;22.40;30.60;;;;;;681182;29;772;-85
2022/02/12 01:57:51;;;;;;;;;;;22.50;30.60;;;;;;686025;28;1257;-86
2022/02/12 01:58:11;;;;;;;;;;;22.50;30.50;;;;;;683450;29;1567;-86
2022/02/12 01:58:32;;;;;;;;;;;22.50;30.30;;;;;;681265;29;1330;-85
2022/02/12 01:58:52;;;;;;;;;;;22.40;30.50;;;;;;683372;28;1253;-86
2022/02/12 01:59:13;;;;;;;;;;;22.40;30.60;;;;;;683500;28;1442;-85
2022/02/12 01:59:34;;;;;;;;;;;22.40;30.70;;;;;;683633;28;1208;-85
2022/02/12 01:59:54;;;;;;;;;;;22.40;30.70;;;;;;686018;28;1257;-85
2022/02/12 02:00:16;;;;;;;;;;;22.40;30.80;;;;;;683804;28;1138;-86
2022/02/12 02:00:39;;;;;;;;;;;22.40;30.70;;;;;;686132;28;1397;-86
2022/02/12 02:01:00;;;;;;;;;;;22.40;30.70;;;;;;684167;28;1337;-86
2022/02/12 02:01:20;;;;;;;;;;;22.40;30.80;;;;;;685483;28;1361;-85
2022/02/12 02:01:41;;;;;;;;;;;22.40;30.80;;;;;;681587;29;1230;-85
2022/02/12 02:02:02;;;;;;;;;;;22.40;30.80;;;;;;681390;29;926;-84
2022/02/12 02:02:24;;;;;;;;;;;22.40;30.80;;;;;;686145;28;1127;-85
2022/02/12 02:02:44;;;;;;;;;;;22.40;31.00;;;;;;686269;28;887;-85
2022/02/12 02:03:05;;;;;;;;;;;22.40;30.90;;;;;;683339;29;1144;-83
2022/02/12 02:03:25;;;;;;;;;;;22.40;30.90;;;;;;683960;28;1229;-84
2022/02/12 02:03:46;;;;;;;;;;;22.40;31.00;;;;;;683411;29;1243;-85
2022/02/12 02:04:07;;;;;;;;;;;22.40;30.90;;;;;;683397;28;1369;-85
2022/02/12 02:04:27;;;;;;;;;;;22.40;31.00;;;;;;686092;28;914;-86
2022/02/12 02:04:48;;;;;;;;;;;22.40;30.90;;;;;;683461;28;1244;-86